»·PEaware :: N595VR KBUR-KLAS

N595VR :: KBUR-KLAS

FLIGHT INFORMATION

Flight Status: Arrived
Operator: Privately registered:
United States
More flights under this callsign
Pilot: Doug M. (13043)
Aircraft: ECLIPSE 500
(EA50)
More flights by this aircraft type
Origin: KBUR Bob Hope-Burbank
United States
Destination: KLAS McCarran Intl
United States
More flights between these airports :: More routes between these airports
Route: +VNY3 DAG MISEN KEPEC6
File this flight plan on PilotEdge
Remarks: I-5 Rating
Altitude:
(Current/Filed)
17,000ft
Speed:
(Current/Filed)
250kts
Departed: 29-Jul-18 07:25 PM
Arrived: 29-Jul-18 08:29 PM
Distance/Time
Traveled:
193nm/1:04
Distance/Time
To Go:
Arrived

Flight Plot

Page will automatically refresh every two minutes.

Flight plan parsing failed; only flown route is shown


Map Options




Map Legend


Flown Route
Filed Route
Departure Airport
Arrival Airport
Navaid (VOR, NDB)
Fix

Horizontal Profiles

Position Reports

Time Latitude Longitude Heading Altitude Ground
Speed
29-Jul-18 19:11 34.200203 -118.358743 263 733ft 0kts
29-Jul-18 19:12 34.200203 -118.358743 263 733ft 0kts
29-Jul-18 19:13 34.200203 -118.358743 263 733ft 0kts
29-Jul-18 19:14 34.200203 -118.358743 263 733ft 0kts
29-Jul-18 19:15 34.200203 -118.358743 263 733ft 0kts
29-Jul-18 19:16 34.200203 -118.358743 263 733ft 0kts
29-Jul-18 19:17 34.200203 -118.358743 263 733ft 0kts
29-Jul-18 19:18 34.200203 -118.358743 263 733ft 0kts
29-Jul-18 19:19 34.200203 -118.358743 263 733ft 0kts
29-Jul-18 19:20 34.200203 -118.358743 263 733ft 0kts
29-Jul-18 19:21 34.200203 -118.358743 263 733ft 0kts
29-Jul-18 19:22 34.200203 -118.358743 263 733ft 0kts
29-Jul-18 19:23 34.199755 -118.358628 131 733ft 12kts
29-Jul-18 19:24 34.203466 -118.359193 346 733ft 20kts
29-Jul-18 19:25 34.207592 -118.360318 345 733ft 19kts
29-Jul-18 19:26 34.210893 -118.361231 345 733ft 41kts
29-Jul-18 19:27 34.200203 -118.358743 263 733ft 0kts
29-Jul-18 19:28 34.200477 -118.358341 347 733ft 12kts
29-Jul-18 19:29 34.206558 -118.360039 345 733ft 20kts
29-Jul-18 19:30 34.211831 -118.361471 1 733ft 13kts
29-Jul-18 19:31 34.212014 -118.361410 29 733ft 0kts
29-Jul-18 19:32 34.211912 -118.360334 163 733ft 0kts
29-Jul-18 19:33 34.203719 -118.358121 166 736ft 103kts
29-Jul-18 19:34 34.169599 -118.378874 224 1730ft 179kts
29-Jul-18 19:35 34.134989 -118.423441 224 2916ft 186kts
29-Jul-18 19:36 34.105121 -118.473201 275 4753ft 199kts
29-Jul-18 19:37 34.152724 -118.497477 14 6747ft 206kts
29-Jul-18 19:38 34.208541 -118.482932 11 8750ft 207kts
29-Jul-18 19:39 34.265906 -118.473715 8 10745ft 214kts
29-Jul-18 19:40 34.325100 -118.466758 6 12740ft 216kts
29-Jul-18 19:41 34.382909 -118.453385 49 14734ft 214kts
29-Jul-18 19:42 34.419619 -118.399317 53 16710ft 195kts
29-Jul-18 19:43 34.457192 -118.341202 54 16963ft 256kts
29-Jul-18 19:44 34.501969 -118.270617 54 16969ft 286kts
29-Jul-18 19:45 34.550480 -118.193393 54 16972ft 290kts
29-Jul-18 19:46 34.598976 -118.115809 54 16978ft 290kts
29-Jul-18 19:47 34.632776 -118.029964 80 16978ft 287kts
29-Jul-18 19:48 34.645256 -117.931375 82 16964ft 310kts
29-Jul-18 19:49 34.657118 -117.826827 82 16944ft 313kts
29-Jul-18 19:50 34.674766 -117.724329 73 16955ft 310kts
29-Jul-18 19:51 34.699804 -117.625187 73 16971ft 306kts
29-Jul-18 19:52 34.724893 -117.526609 73 16979ft 305kts
29-Jul-18 19:53 34.750004 -117.427880 73 16976ft 306kts
29-Jul-18 19:54 34.775041 -117.329150 73 16979ft 306kts
29-Jul-18 19:55 34.795561 -117.247990 73 16962ft 307kts
29-Jul-18 19:56 34.820685 -117.148268 73 16927ft 311kts
29-Jul-18 19:57 34.846121 -117.047013 74 16891ft 315kts
29-Jul-18 19:58 34.871821 -116.944229 74 16875ft 320kts
29-Jul-18 19:59 34.897753 -116.839958 74 16872ft 322kts
29-Jul-18 20:00 34.923602 -116.735636 74 16871ft 322kts
29-Jul-18 20:01 34.949322 -116.631497 73 16871ft 322kts
29-Jul-18 20:02 34.995306 -116.540198 46 16884ft 323kts
29-Jul-18 20:03 35.057578 -116.460424 44 17015ft 326kts
29-Jul-18 20:04 35.120316 -116.381772 46 17044ft 329kts
29-Jul-18 20:05 35.184374 -116.301313 46 17045ft 332kts
29-Jul-18 20:06 35.248867 -116.220318 46 17045ft 332kts
29-Jul-18 20:07 35.313143 -116.139457 46 17045ft 332kts
29-Jul-18 20:08 35.377401 -116.058439 46 17045ft 332kts
29-Jul-18 20:09 35.441567 -115.977339 46 17045ft 332kts
29-Jul-18 20:10 35.505838 -115.895910 46 17047ft 332kts
29-Jul-18 20:11 35.569743 -115.814747 46 17019ft 331kts
29-Jul-18 20:12 35.622745 -115.747279 46 17027ft 331kts
29-Jul-18 20:13 35.697131 -115.652361 46 17036ft 331kts
29-Jul-18 20:14 35.767298 -115.582841 9 17036ft 333kts
29-Jul-18 20:15 35.857798 -115.571847 4 17029ft 307kts
29-Jul-18 20:16 35.942216 -115.564912 12 15648ft 300kts
29-Jul-18 20:17 35.990143 -115.488220 64 14154ft 291kts
29-Jul-18 20:18 36.016926 -115.413979 66 12607ft 285kts
29-Jul-18 20:19 36.025239 -115.321074 93 10433ft 276kts
29-Jul-18 20:20 36.019281 -115.219514 95 9022ft 234kts
29-Jul-18 20:21 36.013651 -115.132486 95 8026ft 242kts
29-Jul-18 20:22 36.009346 -115.065708 94 8016ft 240kts
29-Jul-18 20:23 36.042464 -115.005464 21 7227ft 256kts
29-Jul-18 20:24 36.103152 -114.975682 21 5535ft 210kts
29-Jul-18 20:25 36.143370 -114.983886 298 5474ft 164kts
29-Jul-18 20:26 36.167040 -115.039730 298 5471ft 165kts
29-Jul-18 20:27 36.153924 -115.087230 247 4998ft 145kts
29-Jul-18 20:28 36.137450 -115.126893 230 3612ft 129kts
29-Jul-18 20:29 36.108949 -115.151002 204 2253ft 114kts
29-Jul-18 20:30 36.092165 -115.160746 204 2114ft 21kts
29-Jul-18 20:31 36.089375 -115.163438 292 2114ft 0kts
29-Jul-18 20:32 36.089968 -115.165199 287 2114ft 0kts
29-Jul-18 20:33 36.089968 -115.165199 287 2114ft 0kts
29-Jul-18 20:34 36.089968 -115.165199 287 2114ft 0kts

Navigation Log

Ident Type
Flight plan parsing failed, navigation log unavailable